Weather at Stenkovec Brazda Airport

Public forecast

Using degrees Celsius for public forecast. Weather courtesy of forecast.io.

Closest aviation weather report (METAR) to Stenkovec Brazda Airport

Closest report is Skopje International Airport, 12.1 nm (22.4 km) ESE.

2024/06/22 06:50 (retrieved 19 minutes ago)

LWSK 220650Z VRB02KT CAVOK 29/19 Q1013 NOSIG

Closest aviation forecast (TAF) to Stenkovec Brazda Airport

Closest forecast is Skopje International Airport, 12.1 nm (22.4 km) ESE.

2024/06/22 06:25 (retrieved 44 minutes ago)

TAF LWSK 220520Z 2206/2306 VRB02KT CAVOK PROB30 TEMPO 2215/2219 VRB10G20KT TSRA FEW033CB SCT050